Time;durP1;ratioP1;P1;durP2;ratioP2;P2;SDS_P1;SDS_P2;PMS_P1;PMS_P2;Temp;Humidity;BMP_temperature;BMP_pressure;BME280_temperature;BME280_humidity;BME280_pressure;Samples;Min_cycle;Max_cycle;Signal;HPM_P1;HPM_P2
2021/03/05 00:00:26;;;;;;;15.63;11.07;;;8.40;66.90;;;;;;6202656;28;20469;-59
2021/03/05 00:03:29;;;;;;;15.80;11.07;;;8.40;67.10;;;;;;6207024;28;20951;-58
2021/03/05 00:06:33;;;;;;;13.93;10.30;;;8.40;67.10;;;;;;6224766;28;20480;-59
2021/03/05 00:09:37;;;;;;;16.70;10.60;;;8.40;67.50;;;;;;6224649;28;20467;-58
2021/03/05 00:12:39;;;;;;;14.10;10.80;;;8.50;67.50;;;;;;6224794;28;20479;-61
2021/03/05 00:15:44;;;;;;;14.20;11.27;;;8.50;67.70;;;;;;6224609;28;20487;-60
2021/03/05 00:18:47;;;;;;;15.87;10.53;;;8.60;67.70;;;;;;6203365;28;20523;-58
2021/03/05 00:21:49;;;;;;;11.50;10.30;;;8.60;67.30;;;;;;6202198;28;20483;-58
2021/03/05 00:24:53;;;;;;;15.20;10.90;;;8.60;67.30;;;;;;6205102;28;20527;-58
2021/03/05 00:27:55;;;;;;;11.80;9.63;;;8.60;67.40;;;;;;6205029;28;20473;-58
2021/03/05 00:30:57;;;;;;;11.77;9.90;;;8.60;67.10;;;;;;6205233;28;20520;-60
2021/03/05 00:33:59;;;;;;;11.90;10.77;;;8.70;67.50;;;;;;6211014;28;20475;-59
2021/03/05 00:37:03;;;;;;;12.20;9.83;;;8.70;67.40;;;;;;6229272;28;20503;-59
2021/03/05 00:40:09;;;;;;;12.73;10.40;;;8.70;67.30;;;;;;6229256;28;20963;-58
2021/03/05 00:43:11;;;;;;;13.47;10.10;;;8.70;67.40;;;;;;6229176;28;20792;-58
2021/03/05 00:46:14;;;;;;;12.87;9.77;;;8.70;67.20;;;;;;6216594;28;20476;-58
2021/03/05 00:49:16;;;;;;;15.33;10.60;;;8.70;67.40;;;;;;6204621;28;20480;-60
2021/03/05 00:52:18;;;;;;;14.60;10.80;;;8.70;67.40;;;;;;6204607;28;20817;-59
2021/03/05 00:55:24;;;;;;;15.17;11.50;;;8.80;67.50;;;;;;6204293;28;20592;-59
2021/03/05 00:58:26;;;;;;;10.87;9.73;;;8.70;67.30;;;;;;6204632;28;20469;-60
2021/03/05 01:01:28;;;;;;;13.40;9.13;;;8.80;67.40;;;;;;6219053;28;20479;-58
2021/03/05 01:04:31;;;;;;;14.33;10.20;;;8.80;67.30;;;;;;6228814;28;20479;-59
2021/03/05 01:07:33;;;;;;;14.20;9.60;;;8.80;67.40;;;;;;6227312;28;20478;-58
2021/03/05 01:10:36;;;;;;;12.90;9.90;;;8.80;67.30;;;;;;6202668;28;20475;-58
2021/03/05 01:13:38;;;;;;;12.23;10.10;;;8.80;67.30;;;;;;6202160;28;20481;-58
2021/03/05 01:16:41;;;;;;;14.30;8.60;;;8.80;67.30;;;;;;6202122;28;20487;-58
2021/03/05 01:19:44;;;;;;;11.87;9.60;;;8.80;67.40;;;;;;6201402;28;20487;-60
2021/03/05 01:22:46;;;;;;;11.30;8.00;;;8.80;68.90;;;;;;6201642;28;20472;-60
2021/03/05 01:25:49;;;;;;;11.77;9.40;;;8.70;68.90;;;;;;6209727;28;20998;-61
2021/03/05 01:28:52;;;;;;;10.37;8.80;;;8.70;68.50;;;;;;6226657;28;20468;-60
2021/03/05 01:31:55;;;;;;;9.37;8.00;;;8.70;68.30;;;;;;6225378;28;20487;-60
2021/03/05 01:34:57;;;;;;;11.37;8.83;;;8.60;68.50;;;;;;6226770;28;20586;-58
2021/03/05 01:37:59;;;;;;;9.57;8.57;;;8.50;69.10;;;;;;6228784;28;20482;-60
2021/03/05 01:41:03;;;;;;;9.33;8.33;;;8.50;70.10;;;;;;6228009;28;20952;-61
2021/03/05 01:44:06;;;;;;;12.53;8.80;;;8.50;69.60;;;;;;6227929;28;20460;-59
2021/03/05 01:47:09;;;;;;;12.87;9.57;;;8.50;69.50;;;;;;6227332;28;20483;-60
2021/03/05 01:50:14;;;;;;;10.53;8.13;;;8.60;70.10;;;;;;6227611;28;20562;-60
2021/03/05 01:53:16;;;;;;;15.70;7.17;;;8.60;69.50;;;;;;6217935;28;20541;-59
2021/03/05 01:56:38;;;;;;;7.40;6.23;;;8.60;69.10;;;;;;6227700;28;20487;-58
2021/03/05 01:59:40;;;;;;;9.90;6.57;;;8.60;68.90;;;;;;6227511;28;20453;-60
2021/03/05 02:02:43;;;;;;;8.83;6.57;;;8.70;69.30;;;;;;6222664;28;20900;-59
2021/03/05 02:05:45;;;;;;;10.37;7.30;;;8.70;68.20;;;;;;6227768;28;20819;-60
2021/03/05 02:08:48;;;;;;;11.07;7.07;;;8.70;67.90;;;;;;6228148;28;20455;-62
2021/03/05 02:11:51;;;;;;;13.90;6.27;;;8.70;67.90;;;;;;6227751;28;20618;-59
2021/03/05 02:14:53;;;;;;;9.27;6.23;;;8.90;68.20;;;;;;6227881;28;20482;-59
2021/03/05 02:18:04;;;;;;;8.90;7.10;;;8.90;67.50;;;;;;6227539;28;20483;-59
2021/03/05 02:21:21;;;;;;;11.10;5.70;;;8.90;67.40;;;;;;6227639;28;20821;-59
2021/03/05 02:24:58;;;;;;;7.87;5.60;;;8.90;67.10;;;;;;6227527;28;20469;-60
2021/03/05 02:28:33;;;;;;;8.67;5.83;;;9.00;67.80;;;;;;6204070;28;20544;-60
2021/03/05 02:31:41;;;;;;;9.27;6.90;;;9.00;67.60;;;;;;6227645;28;20471;-59
2021/03/05 02:34:48;;;;;;;7.10;5.67;;;8.80;67.30;;;;;;6227133;28;20485;-58
2021/03/05 02:38:04;;;;;;;11.00;6.07;;;8.90;67.10;;;;;;6227482;28;20484;-57
2021/03/05 02:41:07;;;;;;;8.23;7.17;;;8.90;67.30;;;;;;6226975;28;20964;-57
2021/03/05 02:44:14;;;;;;;9.53;6.30;;;8.90;66.90;;;;;;6226670;28;20610;-57
2021/03/05 02:47:21;;;;;;;8.30;6.53;;;9.00;67.00;;;;;;6226882;28;20480;-56
2021/03/05 02:50:27;;;;;;;7.43;6.63;;;9.10;67.00;;;;;;6227047;28;20476;-57
2021/03/05 02:53:35;;;;;;;11.27;7.20;;;9.00;66.90;;;;;;6226823;28;20570;-57
2021/03/05 02:56:39;;;;;;;8.37;6.70;;;9.10;67.00;;;;;;6226789;28;20452;-56
2021/03/05 02:59:43;;;;;;;10.07;8.03;;;9.10;66.90;;;;;;6226879;28;20761;-57
2021/03/05 03:02:48;;;;;;;16.20;8.07;;;9.10;67.20;;;;;;6226826;28;20429;-57
2021/03/05 03:05:51;;;;;;;11.80;8.30;;;9.10;67.60;;;;;;6226729;28;20823;-57
2021/03/05 03:08:56;;;;;;;10.73;8.40;;;9.00;67.60;;;;;;6226588;28;20466;-57
2021/03/05 03:11:59;;;;;;;12.50;8.33;;;9.00;67.50;;;;;;6226290;28;20465;-57
2021/03/05 03:15:04;;;;;;;14.63;9.80;;;9.00;67.50;;;;;;6226084;28;20482;-57
2021/03/05 03:18:11;;;;;;;13.10;8.83;;;9.00;67.90;;;;;;6226302;28;20610;-57
2021/03/05 03:21:15;;;;;;;14.20;8.40;;;9.00;68.20;;;;;;6226189;28;20968;-58
2021/03/05 03:24:17;;;;;;;12.50;9.00;;;8.90;68.30;;;;;;6226286;28;20486;-57
2021/03/05 03:27:20;;;;;;;11.90;7.83;;;8.90;68.70;;;;;;6226585;28;20472;-58
2021/03/05 03:30:24;;;;;;;10.53;7.60;;;8.80;69.10;;;;;;6226125;28;20482;-58
2021/03/05 03:33:28;;;;;;;15.70;8.67;;;8.70;69.10;;;;;;6225955;28;20821;-57
2021/03/05 03:36:33;;;;;;;9.80;8.30;;;8.70;69.20;;;;;;6226286;28;20472;-56
2021/03/05 03:39:36;;;;;;;11.37;8.47;;;8.70;69.90;;;;;;6226145;28;20555;-57
2021/03/05 03:42:39;;;;;;;17.53;11.83;;;8.70;70.70;;;;;;6225847;28;20475;-57
2021/03/05 03:45:42;;;;;;;17.60;14.50;;;8.60;70.90;;;;;;6226011;28;20480;-56
2021/03/05 03:48:51;;;;;;;16.17;13.33;;;8.70;71.20;;;;;;6226133;28;20480;-57
2021/03/05 03:52:00;;;;;;;19.03;12.87;;;8.70;71.10;;;;;;6225821;28;20555;-56
2021/03/05 03:55:03;;;;;;;14.10;11.93;;;8.60;71.20;;;;;;6225695;28;20479;-56
2021/03/05 03:58:08;;;;;;;17.43;10.90;;;8.60;71.40;;;;;;6224889;28;20809;-57
2021/03/05 04:01:14;;;;;;;11.57;10.13;;;8.60;71.70;;;;;;6225491;28;20500;-57
2021/03/05 04:04:18;;;;;;;15.47;10.80;;;8.60;71.70;;;;;;6225599;28;20478;-57
2021/03/05 04:07:22;;;;;;;12.67;9.20;;;8.60;71.50;;;;;;6225913;28;20599;-57
2021/03/05 04:10:25;;;;;;;15.90;9.30;;;8.70;71.60;;;;;;6225295;28;20984;-57
2021/03/05 04:13:28;;;;;;;11.97;8.97;;;8.70;71.70;;;;;;6225239;28;20491;-56
2021/03/05 04:16:30;;;;;;;9.40;7.03;;;8.70;71.70;;;;;;6225254;28;20484;-58
2021/03/05 04:19:34;;;;;;;12.13;8.53;;;8.70;71.30;;;;;;6225424;28;20479;-58
2021/03/05 04:22:36;;;;;;;11.57;8.20;;;8.70;71.00;;;;;;6225373;28;20476;-58
2021/03/05 04:25:39;;;;;;;8.43;6.90;;;8.80;71.10;;;;;;6225519;28;20479;-57
2021/03/05 04:28:41;;;;;;;11.40;6.20;;;8.90;70.70;;;;;;6225081;28;20558;-57
2021/03/05 04:31:43;;;;;;;9.93;6.73;;;8.80;70.00;;;;;;6224956;28;20467;-57
2021/03/05 04:34:46;;;;;;;13.27;6.87;;;8.90;69.20;;;;;;6224641;28;20495;-57
2021/03/05 04:37:48;;;;;;;16.53;8.90;;;8.80;68.50;;;;;;6224968;28;20480;-57
2021/03/05 04:40:51;;;;;;;20.83;9.10;;;8.80;69.60;;;;;;6224970;28;20476;-57
2021/03/05 04:43:53;;;;;;;13.10;9.80;;;8.80;69.50;;;;;;6225222;28;20468;-57
2021/03/05 04:46:55;;;;;;;13.40;8.47;;;8.70;70.80;;;;;;6225203;28;20480;-58
2021/03/05 04:49:59;;;;;;;12.53;8.63;;;8.70;71.90;;;;;;6225472;28;20565;-58
2021/03/05 04:53:02;;;;;;;15.30;9.93;;;8.60;72.10;;;;;;6224708;28;20947;-58
2021/03/05 04:56:05;;;;;;;13.97;9.60;;;8.70;72.60;;;;;;6225075;28;20810;-57
2021/03/05 04:59:07;;;;;;;12.80;9.77;;;8.70;72.70;;;;;;6224957;28;20805;-58
2021/03/05 05:02:09;;;;;;;16.60;10.50;;;8.70;73.00;;;;;;6225054;28;20490;-56
2021/03/05 05:05:14;;;;;;;19.80;12.50;;;8.70;74.10;;;;;;6210948;28;20480;-57
2021/03/05 05:08:16;;;;;;;11.80;9.83;;;8.70;73.50;;;;;;6227245;28;20490;-58
2021/03/05 05:11:18;;;;;;;12.80;8.00;;;8.70;73.90;;;;;;6229220;28;20468;-57
2021/03/05 05:14:21;;;;;;;13.90;7.47;;;8.70;73.30;;;;;;6229241;28;20803;-57
2021/03/05 05:17:23;;;;;;;12.50;9.30;;;8.70;72.50;;;;;;6228935;28;20494;-57
2021/03/05 05:20:30;;;;;;;14.00;9.10;;;8.70;72.70;;;;;;6229269;28;20902;-57
2021/03/05 05:23:33;;;;;;;14.13;9.53;;;8.70;72.50;;;;;;6228648;28;20451;-57
2021/03/05 05:26:35;;;;;;;13.63;10.20;;;8.60;72.90;;;;;;6228918;28;20479;-57
2021/03/05 05:29:37;;;;;;;17.43;10.00;;;8.70;73.50;;;;;;6228933;28;20444;-56
2021/03/05 05:32:41;;;;;;;13.77;10.37;;;8.70;74.10;;;;;;6228978;28;20531;-57
2021/03/05 05:35:45;;;;;;;17.77;9.70;;;8.80;73.30;;;;;;6228856;28;20483;-56
2021/03/05 05:38:48;;;;;;;12.97;9.03;;;8.70;73.30;;;;;;6228746;28;20476;-57
2021/03/05 05:41:50;;;;;;;15.60;9.43;;;8.70;73.50;;;;;;6228693;28;20462;-57
2021/03/05 05:44:53;;;;;;;14.27;9.90;;;8.60;73.30;;;;;;6228462;28;20921;-56
2021/03/05 05:47:57;;;;;;;13.57;11.33;;;8.60;74.10;;;;;;6228037;28;20939;-57
2021/03/05 05:51:02;;;;;;;19.27;10.77;;;8.60;74.10;;;;;;6228103;28;20975;-57
2021/03/05 05:54:08;;;;;;;14.90;10.07;;;8.70;74.30;;;;;;6228495;28;20483;-57
2021/03/05 05:57:11;;;;;;;13.00;9.40;;;8.70;73.80;;;;;;6228286;28;20484;-57
2021/03/05 06:00:15;;;;;;;15.43;9.80;;;8.70;73.90;;;;;;6228149;28;20475;-58
2021/03/05 06:03:18;;;;;;;19.80;10.67;;;8.70;74.30;;;;;;6228188;28;20538;-59
2021/03/05 06:06:21;;;;;;;17.77;10.30;;;8.60;74.70;;;;;;6218832;28;20487;-58
2021/03/05 06:09:28;;;;;;;14.20;9.33;;;8.60;75.10;;;;;;6228729;28;20556;-57
2021/03/05 06:12:31;;;;;;;16.37;9.00;;;8.70;75.10;;;;;;6227884;28;20476;-57
2021/03/05 06:15:33;;;;;;;10.80;8.60;;;8.70;74.80;;;;;;6227630;28;20472;-57
2021/03/05 06:18:35;;;;;;;11.73;7.80;;;8.80;74.40;;;;;;6226532;28;20472;-58
2021/03/05 06:21:40;;;;;;;9.70;6.87;;;8.80;74.00;;;;;;6227693;28;20475;-57
2021/03/05 06:24:43;;;;;;;11.77;7.53;;;8.80;74.10;;;;;;6228063;28;20473;-57
2021/03/05 06:27:46;;;;;;;11.17;7.67;;;8.90;74.00;;;;;;6227626;28;20491;-57
2021/03/05 06:30:48;;;;;;;14.23;8.00;;;9.00;74.00;;;;;;6227541;28;20478;-58
2021/03/05 06:33:58;;;;;;;12.00;8.10;;;9.10;74.00;;;;;;6227618;28;20484;-58
2021/03/05 06:37:03;;;;;;;10.03;7.37;;;9.20;74.10;;;;;;6227200;28;21035;-57
2021/03/05 06:40:08;;;;;;;14.07;8.37;;;9.30;73.70;;;;;;6227586;28;20472;-58
2021/03/05 06:43:11;;;;;;;15.40;9.23;;;9.40;73.60;;;;;;6227025;28;20476;-58
2021/03/05 06:46:26;;;;;;;12.50;8.20;;;9.50;73.00;;;;;;6226804;28;20476;-58
2021/03/05 06:49:29;;;;;;;15.30;9.17;;;9.60;72.50;;;;;;6227531;28;20477;-58
2021/03/05 06:52:34;;;;;;;14.63;7.93;;;9.70;72.10;;;;;;6227485;28;20464;-58
2021/03/05 06:55:38;;;;;;;12.77;8.00;;;9.80;71.70;;;;;;6226532;28;20491;-58
2021/03/05 06:58:57;;;;;;;10.30;7.33;;;9.90;70.20;;;;;;6227185;28;20928;-58
2021/03/05 07:02:00;;;;;;;18.27;8.77;;;10.00;68.40;;;;;;6226507;28;20483;-58
2021/03/05 07:05:03;;;;;;;18.87;9.87;;;10.00;69.50;;;;;;6226810;28;20468;-57
2021/03/05 07:08:07;;;;;;;18.17;12.00;;;9.90;71.70;;;;;;6227083;28;20468;-56
2021/03/05 07:11:36;;;;;;;19.57;12.40;;;9.90;72.20;;;;;;6221694;28;20491;-56
2021/03/05 07:14:40;;;;;;;19.63;12.33;;;9.90;73.30;;;;;;6224128;28;20579;-55
2021/03/05 07:17:42;;;;;;;24.53;12.37;;;10.00;72.10;;;;;;6225275;28;20470;-57
2021/03/05 07:20:50;;;;;;;20.27;12.40;;;10.10;71.90;;;;;;6222064;28;20429;-56
2021/03/05 07:23:56;;;;;;;15.40;11.50;;;10.20;71.30;;;;;;6220803;28;20939;-58
2021/03/05 07:27:02;;;;;;;17.60;10.23;;;10.40;70.90;;;;;;6225479;28;20956;-57
2021/03/05 07:30:12;;;;;;;13.90;10.00;;;10.50;69.60;;;;;;6225917;28;20960;-58
2021/03/05 07:33:16;;;;;;;17.87;11.00;;;10.70;68.50;;;;;;6225472;28;20475;-58
2021/03/05 07:36:21;;;;;;;16.80;10.17;;;10.80;67.30;;;;;;6224869;28;20810;-58
2021/03/05 07:39:26;;;;;;;19.97;10.60;;;10.90;67.00;;;;;;6224643;28;20805;-58
2021/03/05 07:42:29;;;;;;;20.67;11.20;;;11.10;66.10;;;;;;6226154;28;20559;-58
2021/03/05 07:45:32;;;;;;;18.70;11.37;;;11.40;64.70;;;;;;6226022;28;20547;-58
2021/03/05 07:48:35;;;;;;;14.70;8.90;;;11.60;64.00;;;;;;6225772;28;20932;-58
2021/03/05 07:51:40;;;;;;;17.90;10.37;;;11.90;62.90;;;;;;6225564;28;20468;-58
2021/03/05 07:54:48;;;;;;;21.53;13.50;;;12.00;61.90;;;;;;6225774;28;20483;-58
2021/03/05 07:57:50;;;;;;;18.60;10.40;;;12.20;61.20;;;;;;6225274;28;20472;-58
2021/03/05 08:00:54;;;;;;;19.27;8.43;;;12.20;59.60;;;;;;6225392;28;20483;-58
2021/03/05 08:03:56;;;;;;;13.33;8.10;;;12.30;59.40;;;;;;6225177;28;20479;-58
2021/03/05 08:07:11;;;;;;;11.70;7.63;;;12.60;58.60;;;;;;6224383;28;20468;-58
2021/03/05 08:10:38;;;;;;;15.50;8.80;;;13.20;56.60;;;;;;6224728;28;20481;-57
2021/03/05 08:13:47;;;;;;;12.53;7.53;;;13.70;56.40;;;;;;6224509;28;20935;-58
2021/03/05 08:16:50;;;;;;;16.50;9.30;;;14.30;54.60;;;;;;6210037;28;20570;-57
2021/03/05 08:19:52;;;;;;;17.33;7.60;;;15.00;52.70;;;;;;6224922;28;20508;-57
2021/03/05 08:23:08;;;;;;;13.70;9.07;;;15.70;51.00;;;;;;6223074;28;20478;-57
2021/03/05 08:26:11;;;;;;;12.47;8.23;;;16.40;48.90;;;;;;6224324;28;20481;-58
2021/03/05 08:29:46;;;;;;;11.70;8.53;;;16.40;47.90;;;;;;6223596;28;20480;-58
2021/03/05 08:32:54;;;;;;;15.03;7.93;;;16.20;47.30;;;;;;6220034;28;20599;-58
2021/03/05 08:35:57;;;;;;;12.93;7.90;;;15.90;47.10;;;;;;6224896;28;20468;-59
2021/03/05 08:39:22;;;;;;;11.57;8.80;;;16.50;47.80;;;;;;6225397;28;20532;-58
2021/03/05 08:42:35;;;;;;;17.50;8.90;;;20.60;43.30;;;;;;6226750;28;20499;-59
2021/03/05 08:45:42;;;;;;;15.27;9.80;;;25.30;36.30;;;;;;6230077;28;20247;-59
2021/03/05 08:48:46;;;;;;;16.60;9.30;;;28.90;29.40;;;;;;6230124;28;20228;-59
2021/03/05 08:51:48;;;;;;;12.80;8.93;;;31.50;25.80;;;;;;6229670;28;20232;-59
2021/03/05 08:54:51;;;;;;;14.07;10.43;;;32.90;23.70;;;;;;6229393;28;20689;-59
2021/03/05 08:57:55;;;;;;;11.60;10.07;;;34.30;22.50;;;;;;6229582;28;20229;-61
2021/03/05 09:00:58;;;;;;;14.82;10.07;;;35.80;20.90;;;;;;6225449;28;20232;-59
2021/03/05 09:04:15;;;;;;;14.18;9.73;;;36.80;20.00;;;;;;6206325;28;20229;-60
2021/03/05 09:07:17;;;;;;;10.52;8.05;;;38.60;19.00;;;;;;6197462;28;20318;-60
2021/03/05 09:10:37;;;;;;;11.10;8.05;;;39.30;17.70;;;;;;6228647;28;20250;-60
2021/03/05 09:13:41;;;;;;;9.38;7.60;;;40.00;17.00;;;;;;6180041;28;20234;-61
2021/03/05 09:16:57;;;;;;;12.80;8.60;;;40.40;16.60;;;;;;6179845;28;20237;-60
2021/03/05 09:19:59;;;;;;;10.02;8.38;;;40.80;16.20;;;;;;6195658;28;20229;-60
2021/03/05 09:23:20;;;;;;;9.48;8.18;;;41.10;15.90;;;;;;6228325;28;20232;-61
2021/03/05 09:26:22;;;;;;;10.02;7.47;;;41.90;15.50;;;;;;6228076;28;20236;-60
2021/03/05 09:29:29;;;;;;;8.63;6.60;;;43.10;15.20;;;;;;6228163;28;20311;-60
2021/03/05 09:32:45;;;;;;;10.07;6.35;;;42.80;14.60;;;;;;6228020;28;20247;-60
2021/03/05 09:35:50;;;;;;;10.15;6.35;;;42.60;14.50;;;;;;6228055;28;20232;-59
2021/03/05 09:38:54;;;;;;;9.35;5.05;;;40.50;15.20;;;;;;6205330;28;20237;-60
2021/03/05 09:41:57;;;;;;;7.60;5.50;;;39.90;15.30;;;;;;6203901;28;20236;-59
2021/03/05 09:45:06;;;;;;;11.27;5.15;;;38.90;16.00;;;;;;6203597;28;20257;-59
2021/03/05 09:48:11;;;;;;;6.35;4.93;;;39.50;15.70;;;;;;6203823;28;20229;-60
2021/03/05 09:51:13;;;;;;;7.25;4.55;;;38.20;16.10;;;;;;6203587;28;20233;-60
2021/03/05 09:54:17;;;;;;;8.48;4.53;;;39.00;16.10;;;;;;6202326;28;20239;-60
2021/03/05 09:57:27;;;;;;;6.28;3.67;;;39.60;15.40;;;;;;6202889;28;20229;-60
2021/03/05 10:00:34;;;;;;;4.68;2.95;;;38.20;15.40;;;;;;6203043;28;20327;-60
2021/03/05 10:03:37;;;;;;;2.22;1.98;;;34.30;16.90;;;;;;6199790;28;20225;-61
2021/03/05 10:06:40;;;;;;;4.20;2.45;;;31.40;18.30;;;;;;6193556;28;20239;-61
2021/03/05 10:09:42;;;;;;;9.63;4.47;;;29.60;19.70;;;;;;6179076;28;20247;-59
2021/03/05 10:12:51;;;;;;;4.03;3.30;;;27.50;22.20;;;;;;6219530;28;20239;-58
2021/03/05 10:15:54;;;;;;;4.33;3.07;;;25.70;23.80;;;;;;6227260;28;20268;-57
2021/03/05 10:19:02;;;;;;;2.97;2.40;;;24.10;25.00;;;;;;6226906;28;20308;-58
2021/03/05 10:22:04;;;;;;;5.10;2.60;;;23.00;25.90;;;;;;6200655;28;20380;-57
2021/03/05 10:25:11;;;;;;;4.83;2.97;;;21.60;27.20;;;;;;6186112;28;20313;-58
2021/03/05 10:28:14;;;;;;;5.93;2.67;;;20.90;27.80;;;;;;6178331;28;20235;-59
2021/03/05 10:31:17;;;;;;;5.23;2.53;;;20.50;28.60;;;;;;6178654;28;20247;-59
2021/03/05 10:34:31;;;;;;;4.43;2.67;;;20.20;29.20;;;;;;6178208;28;20261;-57
2021/03/05 10:37:33;;;;;;;5.90;2.47;;;20.10;29.40;;;;;;6183530;28;20254;-60
2021/03/05 10:40:37;;;;;;;4.27;2.40;;;19.50;29.60;;;;;;6202029;28;20580;-61
2021/03/05 10:43:41;;;;;;;6.30;2.60;;;19.00;30.40;;;;;;6202271;28;20252;-60
2021/03/05 10:46:45;;;;;;;2.30;1.50;;;18.70;31.00;;;;;;6201696;28;20234;-60
2021/03/05 10:49:48;;;;;;;4.83;2.17;;;18.20;31.50;;;;;;6202204;28;20244;-59
2021/03/05 10:52:50;;;;;;;3.43;1.67;;;17.60;32.60;;;;;;6201966;28;20545;-58
2021/03/05 10:55:53;;;;;;;1.93;1.23;;;17.30;34.30;;;;;;6201634;28;20544;-58
2021/03/05 10:58:55;;;;;;;1.90;1.30;;;17.00;34.00;;;;;;6201696;28;20925;-58
2021/03/05 11:01:59;;;;;;;2.07;0.77;;;16.90;34.40;;;;;;6201733;28;20479;-58
2021/03/05 11:05:03;;;;;;;5.50;1.33;;;16.90;34.80;;;;;;6200905;28;20473;-59
2021/03/05 11:08:06;;;;;;;1.90;0.70;;;16.90;34.90;;;;;;6201769;28;20855;-60
2021/03/05 11:11:08;;;;;;;1.27;0.93;;;17.00;34.90;;;;;;6208906;28;20477;-58
2021/03/05 11:14:26;;;;;;;1.23;0.70;;;17.00;35.00;;;;;;6225539;28;20819;-59
2021/03/05 11:17:29;;;;;;;4.23;1.17;;;17.60;34.70;;;;;;6225572;28;20476;-58
2021/03/05 11:20:32;;;;;;;1.57;0.90;;;17.90;34.10;;;;;;6225764;28;20967;-59
2021/03/05 11:23:34;;;;;;;0.90;0.80;;;18.10;33.50;;;;;;6223618;28;20598;-60
2021/03/05 11:26:39;;;;;;;2.30;0.83;;;22.10;31.20;;;;;;6225601;28;20252;-59
2021/03/05 11:29:41;;;;;;;1.13;0.87;;;28.10;25.40;;;;;;6208719;28;20212;-60
2021/03/05 11:32:46;;;;;;;2.70;0.80;;;29.10;22.90;;;;;;6201402;28;20352;-60
2021/03/05 11:35:51;;;;;;;1.70;1.50;;;31.00;22.00;;;;;;6201431;28;20263;-60
2021/03/05 11:38:54;;;;;;;1.57;0.63;;;33.60;20.20;;;;;;6209333;28;20367;-60
2021/03/05 11:41:58;;;;;;;2.20;1.07;;;31.70;19.70;;;;;;6210940;28;20676;-66
2021/03/05 11:45:04;;;;;;;17.73;3.47;;;29.30;21.30;;;;;;6224480;28;20692;-62
2021/03/05 11:48:09;;;;;;;3.30;0.80;;;28.60;22.30;;;;;;6201154;28;20229;-59
2021/03/05 11:51:12;;;;;;;1.97;1.03;;;28.60;22.10;;;;;;6200939;28;20445;-59
2021/03/05 11:54:15;;;;;;;2.37;1.03;;;27.40;22.60;;;;;;6206730;28;20236;-60
2021/03/05 11:57:17;;;;;;;1.10;0.90;;;25.90;23.80;;;;;;6224788;28;20232;-61
2021/03/05 12:00:20;;;;;;;3.40;0.63;;;24.10;25.10;;;;;;6225100;28;20233;-60
2021/03/05 12:03:23;;;;;;;1.07;0.90;;;22.80;25.90;;;;;;6224949;28;20685;-62
2021/03/05 12:06:27;;;;;;;4.03;0.80;;;21.70;27.20;;;;;;6204934;28;20372;-60
2021/03/05 12:09:30;;;;;;;1.60;0.80;;;20.90;28.00;;;;;;6200361;28;20233;-59
2021/03/05 12:12:32;;;;;;;1.60;0.90;;;20.40;29.70;;;;;;6219134;28;20389;-60
2021/03/05 12:15:34;;;;;;;1.50;1.00;;;19.80;31.90;;;;;;6224521;28;20707;-59
2021/03/05 12:18:43;;;;;;;1.00;0.80;;;19.10;33.10;;;;;;6223558;28;20237;-59
2021/03/05 12:21:48;;;;;;;0.90;0.90;;;18.70;33.50;;;;;;6224692;28;20727;-61
2021/03/05 12:24:53;;;;;;;1.60;1.10;;;19.20;34.00;;;;;;6224554;28;20243;-60
2021/03/05 12:28:00;;;;;;;1.10;0.70;;;22.80;30.50;;;;;;6218779;28;20573;-61
2021/03/05 12:31:02;;;;;;;1.53;0.93;;;24.50;27.20;;;;;;6189840;28;20657;-59
2021/03/05 12:34:06;;;;;;;1.83;1.13;;;24.30;26.60;;;;;;6183742;28;20229;-57
2021/03/05 12:37:08;;;;;;;1.87;1.20;;;22.70;28.90;;;;;;6198955;28;20233;-57
2021/03/05 12:40:13;;;;;;;2.43;1.27;;;21.00;31.30;;;;;;6197230;28;20312;-58
2021/03/05 12:43:15;;;;;;;3.50;0.80;;;20.10;33.50;;;;;;6197292;28;20233;-58
2021/03/05 12:46:18;;;;;;;2.50;1.20;;;18.50;36.40;;;;;;6197138;28;20323;-58
2021/03/05 12:49:22;;;;;;;1.57;1.00;;;17.20;38.60;;;;;;6197607;28;20477;-58
2021/03/05 12:52:24;;;;;;;1.43;0.90;;;16.30;40.70;;;;;;6197720;28;20477;-59
2021/03/05 12:55:28;;;;;;;1.83;0.80;;;15.50;42.90;;;;;;6214241;28;20480;-60
2021/03/05 12:58:30;;;;;;;1.30;1.20;;;15.10;44.10;;;;;;6223864;28;20472;-59
2021/03/05 13:01:32;;;;;;;0.80;0.80;;;14.80;44.80;;;;;;6224441;28;20494;-59
2021/03/05 13:04:37;;;;;;;1.83;0.90;;;14.60;45.10;;;;;;6219250;28;20496;-59
2021/03/05 13:07:40;;;;;;;1.30;1.20;;;14.10;46.50;;;;;;6199744;28;20483;-60
2021/03/05 13:10:42;;;;;;;2.00;1.20;;;13.80;47.60;;;;;;6203069;28;20467;-60
2021/03/05 13:13:45;;;;;;;1.93;1.07;;;13.80;48.00;;;;;;6224195;28;20476;-61
2021/03/05 13:16:51;;;;;;;1.20;1.10;;;13.70;48.50;;;;;;6223673;28;20541;-60
2021/03/05 13:19:56;;;;;;;1.33;0.90;;;13.40;49.70;;;;;;6224049;28;20468;-59
2021/03/05 13:22:59;;;;;;;2.27;1.27;;;13.10;51.20;;;;;;6223904;28;20467;-59
2021/03/05 13:26:05;;;;;;;1.60;1.20;;;13.00;52.80;;;;;;6223906;28;20579;-59
2021/03/05 13:29:09;;;;;;;1.97;1.47;;;12.80;55.10;;;;;;6226392;28;20501;-58
2021/03/05 13:32:11;;;;;;;1.27;1.07;;;12.80;54.60;;;;;;6228320;28;20484;-58
2021/03/05 13:35:16;;;;;;;0.90;0.90;;;12.90;54.30;;;;;;6227979;28;20475;-60
2021/03/05 13:38:19;;;;;;;0.83;0.77;;;12.90;53.30;;;;;;6215390;28;20488;-59
2021/03/05 13:41:21;;;;;;;1.20;1.10;;;12.50;54.50;;;;;;6203496;28;20542;-58
2021/03/05 13:44:26;;;;;;;1.60;1.10;;;12.30;55.00;;;;;;6203162;28;21019;-59
2021/03/05 13:47:48;;;;;;;1.13;1.03;;;12.30;55.20;;;;;;6220859;28;20538;-59
2021/03/05 13:50:51;;;;;;;2.13;1.43;;;12.20;55.40;;;;;;6226927;28;20813;-59
2021/03/05 13:53:54;;;;;;;2.70;1.30;;;12.10;55.80;;;;;;6227333;28;20760;-60
2021/03/05 13:56:58;;;;;;;1.60;1.20;;;12.10;56.20;;;;;;6226918;28;20464;-60
2021/03/05 14:00:00;;;;;;;1.67;1.27;;;12.00;56.80;;;;;;6226758;28;20464;-60
2021/03/05 14:03:04;;;;;;;1.27;1.17;;;12.00;56.90;;;;;;6226853;28;20472;-62
2021/03/05 14:06:08;;;;;;;1.30;1.20;;;11.90;56.00;;;;;;6226637;28;20921;-59
2021/03/05 14:09:10;;;;;;;1.70;1.60;;;11.80;55.90;;;;;;6226592;28;20702;-59
2021/03/05 14:12:12;;;;;;;5.23;1.30;;;11.80;56.20;;;;;;6211941;28;20815;-60
2021/03/05 14:15:16;;;;;;;3.33;1.10;;;12.10;56.20;;;;;;6209675;28;20468;-58
2021/03/05 14:18:18;;;;;;;1.40;1.20;;;12.50;55.50;;;;;;6227048;28;20491;-59
2021/03/05 14:21:22;;;;;;;2.00;1.13;;;13.00;55.20;;;;;;6227042;28;20476;-59
2021/03/05 14:24:24;;;;;;;1.20;1.10;;;13.40;53.20;;;;;;6226985;28;20915;-59
2021/03/05 14:27:27;;;;;;;1.43;1.33;;;13.70;51.80;;;;;;6227120;28;20483;-59
2021/03/05 14:30:29;;;;;;;2.33;1.83;;;13.70;51.00;;;;;;6226938;28;20476;-59
2021/03/05 14:33:32;;;;;;;1.67;1.30;;;13.20;50.70;;;;;;6227174;28;20483;-59
2021/03/05 14:36:35;;;;;;;1.50;0.90;;;12.70;51.60;;;;;;6226745;28;20471;-59
2021/03/05 14:39:39;;;;;;;2.20;1.40;;;12.60;52.20;;;;;;6195360;28;20479;-59
2021/03/05 14:42:41;;;;;;;2.10;1.33;;;12.40;53.10;;;;;;6225231;28;20468;-59
2021/03/05 14:45:46;;;;;;;2.20;1.30;;;12.30;53.10;;;;;;6225461;28;20471;-58
2021/03/05 14:48:49;;;;;;;1.90;1.40;;;12.10;53.20;;;;;;6226237;28;20492;-60
2021/03/05 14:51:53;;;;;;;2.50;1.60;;;12.20;53.30;;;;;;6226098;28;20492;-59
2021/03/05 14:54:55;;;;;;;3.30;1.77;;;12.20;52.70;;;;;;6226272;28;20490;-57
2021/03/05 14:57:59;;;;;;;3.90;1.80;;;12.10;52.20;;;;;;6226330;28;20475;-57
2021/03/05 15:01:04;;;;;;;4.90;4.23;;;11.90;52.70;;;;;;6218230;28;20484;-59
2021/03/05 15:04:07;;;;;;;2.10;1.90;;;11.60;53.30;;;;;;6208579;28;20472;-60
2021/03/05 15:07:10;;;;;;;3.77;1.47;;;11.60;53.70;;;;;;6227141;28;20511;-60
2021/03/05 15:10:13;;;;;;;1.50;1.40;;;11.50;53.60;;;;;;6210364;28;20917;-59
2021/03/05 15:13:16;;;;;;;1.83;1.63;;;11.50;53.80;;;;;;6181296;28;20565;-60
2021/03/05 15:16:18;;;;;;;1.70;1.57;;;11.40;53.80;;;;;;6180551;28;20865;-61
2021/03/05 15:19:21;;;;;;;5.20;1.80;;;11.20;54.30;;;;;;6229757;28;20468;-59
2021/03/05 15:22:24;;;;;;;1.90;1.70;;;11.10;54.20;;;;;;6228262;28;20882;-60
2021/03/05 15:25:28;;;;;;;1.80;1.70;;;11.20;54.60;;;;;;6207405;28;20999;-58
2021/03/05 15:28:32;;;;;;;1.70;1.60;;;11.00;55.40;;;;;;6201228;28;20477;-60
2021/03/05 15:31:35;;;;;;;2.83;1.90;;;10.90;55.10;;;;;;6201283;28;20469;-58
2021/03/05 15:34:37;;;;;;;2.70;2.10;;;10.90;57.50;;;;;;6209732;28;20987;-60
2021/03/05 15:37:42;;;;;;;2.60;2.40;;;10.90;57.50;;;;;;6218538;28;20813;-59
2021/03/05 15:40:44;;;;;;;4.70;1.73;;;11.00;57.70;;;;;;6177779;28;20556;-56
2021/03/05 15:43:47;;;;;;;3.17;2.07;;;11.00;58.60;;;;;;6176898;28;20559;-61
2021/03/05 15:46:49;;;;;;;2.10;1.90;;;10.90;59.60;;;;;;6176831;28;20825;-61
2021/03/05 15:49:52;;;;;;;3.43;2.67;;;10.50;60.90;;;;;;6184850;28;20468;-62
2021/03/05 15:52:55;;;;;;;2.57;2.37;;;10.20;62.60;;;;;;6224232;28;20468;-62
2021/03/05 15:55:57;;;;;;;4.40;2.73;;;9.70;65.60;;;;;;6224349;28;20476;-61
2021/03/05 15:59:00;;;;;;;2.93;2.63;;;9.50;67.60;;;;;;6223697;28;21073;-61